sensor_id;sensor_type;location;lat;lon;timestamp;temperature;humidity
15298;DHT22;7750;48.796;9.026;2023-05-24T02:43:09;16.30;64.00
15298;DHT22;7750;48.796;9.026;2023-05-24T03:53:54;15.70;64.80
15298;DHT22;7750;48.796;9.026;2023-05-24T03:58:55;15.60;65.00
15298;DHT22;7750;48.796;9.026;2023-05-24T04:03:59;15.60;65.10
15298;DHT22;7750;48.796;9.026;2023-05-24T04:09:00;15.60;65.10
15298;DHT22;7750;48.796;9.026;2023-05-24T04:14:04;15.50;65.20
15298;DHT22;7750;48.796;9.026;2023-05-24T04:19:05;15.50;65.40
15298;DHT22;7750;48.796;9.026;2023-05-24T04:24:06;15.50;65.40
15298;DHT22;7750;48.796;9.026;2023-05-24T04:29:07;15.50;65.40
15298;DHT22;7750;48.796;9.026;2023-05-24T04:34:08;15.50;66.10
15298;DHT22;7750;48.796;9.026;2023-05-24T04:39:12;15.50;65.40
15298;DHT22;7750;48.796;9.026;2023-05-24T04:44:13;15.40;65.70
15298;DHT22;7750;48.796;9.026;2023-05-24T04:49:13;15.40;65.90
15298;DHT22;7750;48.796;9.026;2023-05-24T04:54:14;15.40;65.80
15298;DHT22;7750;48.796;9.026;2023-05-24T04:59:17;15.40;65.80
15298;DHT22;7750;48.796;9.026;2023-05-24T05:04:18;15.40;66.00
15298;DHT22;7750;48.796;9.026;2023-05-24T05:09:18;15.40;65.90
15298;DHT22;7750;48.796;9.026;2023-05-24T05:14:19;15.30;66.10
15298;DHT22;7750;48.796;9.026;2023-05-24T05:19:20;15.30;66.10
15298;DHT22;7750;48.796;9.026;2023-05-24T05:24:20;15.30;66.40
15298;DHT22;7750;48.796;9.026;2023-05-24T05:29:21;15.20;66.20
15298;DHT22;7750;48.796;9.026;2023-05-24T05:34:22;15.30;66.40
15298;DHT22;7750;48.796;9.026;2023-05-24T05:39:22;15.20;66.30
15298;DHT22;7750;48.796;9.026;2023-05-24T05:44:23;15.30;66.40
15298;DHT22;7750;48.796;9.026;2023-05-24T05:49:24;15.30;66.50
15298;DHT22;7750;48.796;9.026;2023-05-24T05:54:24;15.40;66.30
15298;DHT22;7750;48.796;9.026;2023-05-24T05:59:27;15.40;66.20
15298;DHT22;7750;48.796;9.026;2023-05-24T06:04:27;15.40;66.30
15298;DHT22;7750;48.796;9.026;2023-05-24T06:09:28;15.40;66.10
15298;DHT22;7750;48.796;9.026;2023-05-24T06:14:28;15.40;65.90
15298;DHT22;7750;48.796;9.026;2023-05-24T06:19:30;15.50;66.20
15298;DHT22;7750;48.796;9.026;2023-05-24T06:24:31;15.50;67.10
15298;DHT22;7750;48.796;9.026;2023-05-24T06:29:34;15.50;66.40
15298;DHT22;7750;48.796;9.026;2023-05-24T06:34:35;15.60;66.40
15298;DHT22;7750;48.796;9.026;2023-05-24T06:39:35;15.70;66.00
15298;DHT22;7750;48.796;9.026;2023-05-24T06:44:37;15.80;65.90
15298;DHT22;7750;48.796;9.026;2023-05-24T06:49:37;15.80;65.60
15298;DHT22;7750;48.796;9.026;2023-05-24T06:54:38;15.80;65.50
15298;DHT22;7750;48.796;9.026;2023-05-24T06:59:39;15.80;65.50
15298;DHT22;7750;48.796;9.026;2023-05-24T07:04:39;15.70;65.70
15298;DHT22;7750;48.796;9.026;2023-05-24T07:09:40;15.70;65.50
15298;DHT22;7750;48.796;9.026;2023-05-24T07:14:41;15.70;65.90
15298;DHT22;7750;48.796;9.026;2023-05-24T07:19:42;15.70;65.80
15298;DHT22;7750;48.796;9.026;2023-05-24T07:24:42;15.70;65.90
15298;DHT22;7750;48.796;9.026;2023-05-24T07:29:43;15.70;66.20
15298;DHT22;7750;48.796;9.026;2023-05-24T07:34:44;15.70;66.00
15298;DHT22;7750;48.796;9.026;2023-05-24T07:39:44;15.70;65.60
15298;DHT22;7750;48.796;9.026;2023-05-24T07:44:45;15.70;65.50
15298;DHT22;7750;48.796;9.026;2023-05-24T07:49:46;15.70;65.60
15298;DHT22;7750;48.796;9.026;2023-05-24T07:54:46;15.70;65.60
15298;DHT22;7750;48.796;9.026;2023-05-24T07:59:47;15.70;65.70
15298;DHT22;7750;48.796;9.026;2023-05-24T08:04:48;15.70;65.70
15298;DHT22;7750;48.796;9.026;2023-05-24T08:09:48;15.80;65.70
15298;DHT22;7750;48.796;9.026;2023-05-24T08:14:49;15.80;65.30
15298;DHT22;7750;48.796;9.026;2023-05-24T08:19:50;15.90;65.40
15298;DHT22;7750;48.796;9.026;2023-05-24T08:24:50;15.90;65.30
15298;DHT22;7750;48.796;9.026;2023-05-24T08:29:52;15.90;65.30
15298;DHT22;7750;48.796;9.026;2023-05-24T08:34:52;15.90;65.30
15298;DHT22;7750;48.796;9.026;2023-05-24T08:39:55;16.00;65.20
15298;DHT22;7750;48.796;9.026;2023-05-24T08:45:03;16.10;65.30
15298;DHT22;7750;48.796;9.026;2023-05-24T08:50:07;16.20;65.40
15298;DHT22;7750;48.796;9.026;2023-05-24T08:55:09;16.40;65.20
15298;DHT22;7750;48.796;9.026;2023-05-24T09:00:11;16.50;64.60
15298;DHT22;7750;48.796;9.026;2023-05-24T09:05:13;16.60;63.90
15298;DHT22;7750;48.796;9.026;2023-05-24T09:10:19;16.60;64.00
15298;DHT22;7750;48.796;9.026;2023-05-24T09:15:20;16.60;64.10
15298;DHT22;7750;48.796;9.026;2023-05-24T09:20:21;16.60;63.90
15298;DHT22;7750;48.796;9.026;2023-05-24T09:25:22;16.60;63.40
15298;DHT22;7750;48.796;9.026;2023-05-24T09:30:23;16.60;63.20
15298;DHT22;7750;48.796;9.026;2023-05-24T09:35:25;16.50;63.20
15298;DHT22;7750;48.796;9.026;2023-05-24T09:40:27;16.60;63.90
15298;DHT22;7750;48.796;9.026;2023-05-24T09:45:28;16.60;63.70
15298;DHT22;7750;48.796;9.026;2023-05-24T09:50:29;16.60;63.10
15298;DHT22;7750;48.796;9.026;2023-05-24T09:55:30;16.60;63.00
15298;DHT22;7750;48.796;9.026;2023-05-24T10:00:44;16.60;63.40
15298;DHT22;7750;48.796;9.026;2023-05-24T10:06:11;16.50;62.80
15298;DHT22;7750;48.796;9.026;2023-05-24T10:11:13;16.50;63.40
15298;DHT22;7750;48.796;9.026;2023-05-24T10:16:14;16.40;63.30
15298;DHT22;7750;48.796;9.026;2023-05-24T10:21:16;16.40;63.40
15298;DHT22;7750;48.796;9.026;2023-05-24T10:26:19;16.40;63.50
15298;DHT22;7750;48.796;9.026;2023-05-24T10:31:24;16.40;63.10
15298;DHT22;7750;48.796;9.026;2023-05-24T10:36:27;16.50;63.30
15298;DHT22;7750;48.796;9.026;2023-05-24T10:41:38;16.50;63.30
15298;DHT22;7750;48.796;9.026;2023-05-24T10:47:09;16.50;63.20
15298;DHT22;7750;48.796;9.026;2023-05-24T10:52:12;16.60;63.00
15298;DHT22;7750;48.796;9.026;2023-05-24T11:03:00;16.80;62.70
15298;DHT22;7750;48.796;9.026;2023-05-24T11:08:01;16.90;62.20
15298;DHT22;7750;48.796;9.026;2023-05-24T11:13:06;16.90;63.00
15298;DHT22;7750;48.796;9.026;2023-05-24T11:23:08;17.30;62.00
15298;DHT22;7750;48.796;9.026;2023-05-24T11:28:10;17.40;61.80
15298;DHT22;7750;48.796;9.026;2023-05-24T11:33:22;17.60;61.30
15298;DHT22;7750;48.796;9.026;2023-05-24T11:38:23;17.80;60.90
15298;DHT22;7750;48.796;9.026;2023-05-24T11:43:24;18.10;61.90
15298;DHT22;7750;48.796;9.026;2023-05-24T11:48:25;18.30;60.80
15298;DHT22;7750;48.796;9.026;2023-05-24T11:53:26;18.60;60.30
15298;DHT22;7750;48.796;9.026;2023-05-24T11:58:49;18.80;58.90
15298;DHT22;7750;48.796;9.026;2023-05-24T12:03:50;18.90;57.70
15298;DHT22;7750;48.796;9.026;2023-05-24T12:08:52;19.00;57.90
15298;DHT22;7750;48.796;9.026;2023-05-24T12:14:02;19.20;57.80
15298;DHT22;7750;48.796;9.026;2023-05-24T12:19:03;19.30;57.20
15298;DHT22;7750;48.796;9.026;2023-05-24T12:24:11;19.50;57.60
15298;DHT22;7750;48.796;9.026;2023-05-24T12:29:13;19.70;57.00
15298;DHT22;7750;48.796;9.026;2023-05-24T12:39:35;20.10;57.10
15298;DHT22;7750;48.796;9.026;2023-05-24T12:44:41;20.30;56.60
15298;DHT22;7750;48.796;9.026;2023-05-24T12:49:44;20.40;55.20
15298;DHT22;7750;48.796;9.026;2023-05-24T12:54:44;20.50;55.90
15298;DHT22;7750;48.796;9.026;2023-05-24T12:59:45;20.70;54.50
15298;DHT22;7750;48.796;9.026;2023-05-24T13:05:34;20.80;55.40
15298;DHT22;7750;48.796;9.026;2023-05-24T13:11:04;21.00;53.80
15298;DHT22;7750;48.796;9.026;2023-05-24T13:16:04;21.10;53.90
15298;DHT22;7750;48.796;9.026;2023-05-24T13:21:06;21.20;53.40
15298;DHT22;7750;48.796;9.026;2023-05-24T13:26:08;21.30;52.30
15298;DHT22;7750;48.796;9.026;2023-05-24T13:31:08;21.40;51.00
15298;DHT22;7750;48.796;9.026;2023-05-24T13:36:18;21.50;50.60
15298;DHT22;7750;48.796;9.026;2023-05-24T13:41:19;21.60;49.80
15298;DHT22;7750;48.796;9.026;2023-05-24T13:46:20;21.70;51.30
15298;DHT22;7750;48.796;9.026;2023-05-24T13:51:20;21.70;51.50
15298;DHT22;7750;48.796;9.026;2023-05-24T13:56:40;21.70;51.80
15298;DHT22;7750;48.796;9.026;2023-05-24T14:01:51;21.60;50.70
15298;DHT22;7750;48.796;9.026;2023-05-24T14:06:51;21.60;50.40
15298;DHT22;7750;48.796;9.026;2023-05-24T14:11:52;21.60;50.70
15298;DHT22;7750;48.796;9.026;2023-05-24T14:16:53;21.60;49.60
15298;DHT22;7750;48.796;9.026;2023-05-24T14:21:56;21.60;48.40
15298;DHT22;7750;48.796;9.026;2023-05-24T14:27:00;21.60;48.40
15298;DHT22;7750;48.796;9.026;2023-05-24T14:32:18;21.70;49.80
15298;DHT22;7750;48.796;9.026;2023-05-24T14:37:19;21.90;49.10
15298;DHT22;7750;48.796;9.026;2023-05-24T14:42:20;21.90;49.40
15298;DHT22;7750;48.796;9.026;2023-05-24T14:47:20;21.90;48.70
15298;DHT22;7750;48.796;9.026;2023-05-24T14:52:21;21.80;49.30
15298;DHT22;7750;48.796;9.026;2023-05-24T14:57:29;21.80;49.90
15298;DHT22;7750;48.796;9.026;2023-05-24T15:02:35;21.80;48.70
15298;DHT22;7750;48.796;9.026;2023-05-24T15:07:36;21.80;48.20
15298;DHT22;7750;48.796;9.026;2023-05-24T15:12:36;21.80;47.50
15298;DHT22;7750;48.796;9.026;2023-05-24T15:17:37;21.80;48.00
15298;DHT22;7750;48.796;9.026;2023-05-24T15:27:49;21.60;48.50
15298;DHT22;7750;48.796;9.026;2023-05-24T15:33:03;21.60;48.30
15298;DHT22;7750;48.796;9.026;2023-05-24T15:38:04;21.50;47.80
15298;DHT22;7750;48.796;9.026;2023-05-24T15:43:05;21.40;48.00
15298;DHT22;7750;48.796;9.026;2023-05-24T15:48:13;21.40;48.50
15298;DHT22;7750;48.796;9.026;2023-05-24T15:53:24;21.30;48.70
15298;DHT22;7750;48.796;9.026;2023-05-24T15:58:25;21.30;49.20
15298;DHT22;7750;48.796;9.026;2023-05-24T16:03:26;21.20;48.10
15298;DHT22;7750;48.796;9.026;2023-05-24T16:08:27;21.20;48.30
15298;DHT22;7750;48.796;9.026;2023-05-24T16:13:27;21.10;48.90
15298;DHT22;7750;48.796;9.026;2023-05-24T16:18:28;21.00;48.20
15298;DHT22;7750;48.796;9.026;2023-05-24T16:23:33;20.90;48.20
15298;DHT22;7750;48.796;9.026;2023-05-24T16:28:34;20.70;47.80
15298;DHT22;7750;48.796;9.026;2023-05-24T16:33:34;20.50;48.40
15298;DHT22;7750;48.796;9.026;2023-05-24T16:38:35;20.40;48.10
15298;DHT22;7750;48.796;9.026;2023-05-24T16:43:37;20.30;48.90
15298;DHT22;7750;48.796;9.026;2023-05-24T16:48:37;20.20;49.10
15298;DHT22;7750;48.796;9.026;2023-05-24T16:53:38;20.10;49.30
15298;DHT22;7750;48.796;9.026;2023-05-24T16:58:39;20.00;49.60
15298;DHT22;7750;48.796;9.026;2023-05-24T17:03:39;20.00;49.20
15298;DHT22;7750;48.796;9.026;2023-05-24T17:08:40;19.90;49.60
15298;DHT22;7750;48.796;9.026;2023-05-24T17:13:41;19.80;50.00
15298;DHT22;7750;48.796;9.026;2023-05-24T17:18:41;19.70;50.20
15298;DHT22;7750;48.796;9.026;2023-05-24T17:23:42;19.70;50.00
15298;DHT22;7750;48.796;9.026;2023-05-24T17:28:43;19.70;50.20
15298;DHT22;7750;48.796;9.026;2023-05-24T17:33:43;19.50;50.30
15298;DHT22;7750;48.796;9.026;2023-05-24T17:38:44;19.50;50.00
15298;DHT22;7750;48.796;9.026;2023-05-24T17:43:45;19.40;50.00
15298;DHT22;7750;48.796;9.026;2023-05-24T17:48:45;19.30;50.20
15298;DHT22;7750;48.796;9.026;2023-05-24T17:53:47;19.20;49.90
15298;DHT22;7750;48.796;9.026;2023-05-24T17:58:48;19.20;49.90
15298;DHT22;7750;48.796;9.026;2023-05-24T18:03:49;19.10;49.60
15298;DHT22;7750;48.796;9.026;2023-05-24T18:08:50;19.00;49.50
15298;DHT22;7750;48.796;9.026;2023-05-24T18:13:50;18.90;49.60
15298;DHT22;7750;48.796;9.026;2023-05-24T18:18:51;18.80;49.40
15298;DHT22;7750;48.796;9.026;2023-05-24T18:23:51;18.80;49.40
15298;DHT22;7750;48.796;9.026;2023-05-24T18:28:52;18.70;49.30
15298;DHT22;7750;48.796;9.026;2023-05-24T18:33:53;18.60;49.90
15298;DHT22;7750;48.796;9.026;2023-05-24T18:38:54;18.60;50.10
15298;DHT22;7750;48.796;9.026;2023-05-24T18:43:55;18.60;50.10
15298;DHT22;7750;48.796;9.026;2023-05-24T18:48:55;18.50;50.30
15298;DHT22;7750;48.796;9.026;2023-05-24T18:53:59;18.40;50.50
15298;DHT22;7750;48.796;9.026;2023-05-24T18:59:00;18.40;50.80
15298;DHT22;7750;48.796;9.026;2023-05-24T19:04:01;18.30;50.40
15298;DHT22;7750;48.796;9.026;2023-05-24T19:09:02;18.30;50.40
15298;DHT22;7750;48.796;9.026;2023-05-24T19:14:03;18.20;50.60
15298;DHT22;7750;48.796;9.026;2023-05-24T19:19:03;18.10;50.90
15298;DHT22;7750;48.796;9.026;2023-05-24T19:24:04;18.00;50.80
15298;DHT22;7750;48.796;9.026;2023-05-24T19:29:05;18.00;51.10
15298;DHT22;7750;48.796;9.026;2023-05-24T19:34:05;17.90;51.10
15298;DHT22;7750;48.796;9.026;2023-05-24T19:39:06;17.90;51.10
15298;DHT22;7750;48.796;9.026;2023-05-24T19:44:07;17.80;51.10
15298;DHT22;7750;48.796;9.026;2023-05-24T19:49:07;17.70;51.10
15298;DHT22;7750;48.796;9.026;2023-05-24T19:54:08;17.70;51.20
15298;DHT22;7750;48.796;9.026;2023-05-24T19:59:09;17.60;51.10
15298;DHT22;7750;48.796;9.026;2023-05-24T20:04:13;17.90;50.10
15298;DHT22;7750;48.796;9.026;2023-05-24T20:09:28;17.70;50.70
15298;DHT22;7750;48.796;9.026;2023-05-24T20:14:32;17.40;50.50
15298;DHT22;7750;48.796;9.026;2023-05-24T20:19:50;17.20;50.50
15298;DHT22;7750;48.796;9.026;2023-05-24T20:25:26;17.10;50.40
15298;DHT22;7750;48.796;9.026;2023-05-24T20:30:29;16.90;50.60
15298;DHT22;7750;48.796;9.026;2023-05-24T20:35:30;16.70;50.80
15298;DHT22;7750;48.796;9.026;2023-05-24T20:40:41;16.60;50.70
15298;DHT22;7750;48.796;9.026;2023-05-24T20:45:45;16.40;50.80
15298;DHT22;7750;48.796;9.026;2023-05-24T20:50:47;16.30;50.90
15298;DHT22;7750;48.796;9.026;2023-05-24T20:55:56;16.10;51.20
15298;DHT22;7750;48.796;9.026;2023-05-24T21:01:35;16.00;51.60
15298;DHT22;7750;48.796;9.026;2023-05-24T21:06:54;15.90;52.00
15298;DHT22;7750;48.796;9.026;2023-05-24T21:11:55;15.80;52.20
15298;DHT22;7750;48.796;9.026;2023-05-24T21:17:14;15.70;52.50
15298;DHT22;7750;48.796;9.026;2023-05-24T21:22:36;15.60;52.90
15298;DHT22;7750;48.796;9.026;2023-05-24T21:27:57;15.50;53.10
15298;DHT22;7750;48.796;9.026;2023-05-24T21:33:07;15.40;53.20
15298;DHT22;7750;48.796;9.026;2023-05-24T21:38:08;15.30;53.30
15298;DHT22;7750;48.796;9.026;2023-05-24T21:43:09;15.20;53.40
15298;DHT22;7750;48.796;9.026;2023-05-24T21:48:16;15.20;53.70
15298;DHT22;7750;48.796;9.026;2023-05-24T21:53:20;15.10;54.20
15298;DHT22;7750;48.796;9.026;2023-05-24T21:58:21;15.00;54.10
15298;DHT22;7750;48.796;9.026;2023-05-24T22:03:22;15.00;54.40
15298;DHT22;7750;48.796;9.026;2023-05-24T22:08:23;14.90;54.70
15298;DHT22;7750;48.796;9.026;2023-05-24T22:13:24;14.80;54.80
15298;DHT22;7750;48.796;9.026;2023-05-24T22:18:25;14.80;55.60
15298;DHT22;7750;48.796;9.026;2023-05-24T22:23:29;14.80;55.20
15298;DHT22;7750;48.796;9.026;2023-05-24T22:28:50;14.80;55.50
15298;DHT22;7750;48.796;9.026;2023-05-24T22:33:50;14.80;56.10
15298;DHT22;7750;48.796;9.026;2023-05-24T22:38:51;14.70;56.00
15298;DHT22;7750;48.796;9.026;2023-05-24T22:43:52;14.70;56.20
15298;DHT22;7750;48.796;9.026;2023-05-24T22:48:53;14.70;56.50
15298;DHT22;7750;48.796;9.026;2023-05-24T22:53:57;14.70;56.60
15298;DHT22;7750;48.796;9.026;2023-05-24T22:58:57;14.70;56.70
15298;DHT22;7750;48.796;9.026;2023-05-24T23:03:59;14.70;56.80
15298;DHT22;7750;48.796;9.026;2023-05-24T23:09:00;14.60;56.80
15298;DHT22;7750;48.796;9.026;2023-05-24T23:14:01;14.60;56.90
15298;DHT22;7750;48.796;9.026;2023-05-24T23:19:01;14.60;56.90
15298;DHT22;7750;48.796;9.026;2023-05-24T23:24:05;14.60;56.90
15298;DHT22;7750;48.796;9.026;2023-05-24T23:29:06;14.50;57.00
15298;DHT22;7750;48.796;9.026;2023-05-24T23:34:07;14.40;56.90
15298;DHT22;7750;48.796;9.026;2023-05-24T23:39:07;14.40;57.00
15298;DHT22;7750;48.796;9.026;2023-05-24T23:44:10;14.30;57.20
15298;DHT22;7750;48.796;9.026;2023-05-24T23:49:10;14.20;57.30
15298;DHT22;7750;48.796;9.026;2023-05-24T23:54:12;14.20;57.40
15298;DHT22;7750;48.796;9.026;2023-05-24T23:59:15;14.10;57.50
